createdAt,value
2023-04-12T00:01:41.515Z,13.05
2023-04-12T00:04:10.133Z,13.42
2023-04-12T00:06:38.440Z,11.59
2023-04-12T00:09:08.740Z,12.06
2023-04-12T00:11:36.834Z,13.15
2023-04-12T00:14:04.999Z,13.74
2023-04-12T00:16:32.989Z,12.61
2023-04-12T00:19:03.718Z,11.97
2023-04-12T00:21:31.734Z,13.55
2023-04-12T00:24:02.959Z,14.52
2023-04-12T00:26:32.338Z,13.51
2023-04-12T00:29:00.189Z,12.68
2023-04-12T00:31:30.311Z,11.98
2023-04-12T00:34:00.430Z,12.76
2023-04-12T00:36:28.548Z,13.01
2023-04-12T00:38:59.119Z,13.51
2023-04-12T00:41:29.368Z,12.68
2023-04-12T00:43:59.125Z,13.72
2023-04-12T00:46:29.689Z,13.49
2023-04-12T00:48:58.427Z,13.87
2023-04-12T00:51:26.764Z,11.65
2023-04-12T00:53:54.995Z,13.82
2023-04-12T00:56:23.918Z,12.40
2023-04-12T00:58:52.543Z,11.94
2023-04-12T01:01:21.924Z,13.33
2023-04-12T01:03:50.727Z,11.32
2023-04-12T01:06:29.803Z,11.74
2023-04-12T01:09:01.001Z,11.57
2023-04-12T01:11:33.626Z,11.83
2023-04-12T01:14:06.753Z,10.78
2023-04-12T01:16:40.838Z,13.66
2023-04-12T01:19:22.924Z,11.07
2023-04-12T01:21:55.118Z,11.09
2023-04-12T01:24:29.047Z,12.63
2023-04-12T01:27:00.917Z,12.53
2023-04-12T01:29:30.786Z,11.35
2023-04-12T01:32:00.434Z,11.67
2023-04-12T01:34:30.837Z,11.63
2023-04-12T01:36:58.744Z,12.00
2023-04-12T01:39:27.462Z,13.32
2023-04-12T01:41:55.824Z,11.58
2023-04-12T01:44:26.799Z,12.79
2023-04-12T01:47:01.981Z,11.56
2023-04-12T01:49:33.482Z,11.35
2023-04-12T01:52:04.001Z,10.48
2023-04-12T01:54:34.515Z,11.73
2023-04-12T01:57:03.628Z,10.94
2023-04-12T01:59:33.410Z,11.41
2023-04-12T02:02:03.033Z,11.55
2023-04-12T02:04:31.235Z,11.69
2023-04-12T02:06:59.058Z,11.32
2023-04-12T02:09:27.544Z,11.30
2023-04-12T02:11:56.466Z,12.08
2023-04-12T02:14:24.384Z,12.62
2023-04-12T02:16:56.047Z,13.10
2023-04-12T02:19:25.545Z,12.02
2023-04-12T02:21:53.881Z,11.80
2023-04-12T02:24:21.861Z,11.40
2023-04-12T02:26:49.879Z,12.88
2023-04-12T02:29:17.830Z,12.13
2023-04-12T02:31:46.465Z,10.54
2023-04-12T02:34:17.901Z,11.43
2023-04-12T02:36:49.248Z,9.50
2023-04-12T02:39:18.898Z,11.16
2023-04-12T02:41:46.887Z,11.75
2023-04-12T02:44:14.857Z,9.73
2023-04-12T02:46:42.725Z,12.09
2023-04-12T02:49:10.567Z,10.44
2023-04-12T02:51:38.717Z,11.99
2023-04-12T02:54:08.213Z,11.26
2023-04-12T02:56:37.000Z,10.25
2023-04-12T02:59:04.848Z,11.51
2023-04-12T03:01:33.912Z,10.82
2023-04-12T03:04:02.549Z,11.22
2023-04-12T03:06:32.022Z,10.03
2023-04-12T03:09:00.374Z,9.58
2023-04-12T03:11:29.856Z,11.32
2023-04-12T03:13:57.985Z,11.23
2023-04-12T03:16:29.731Z,11.56
2023-04-12T03:18:57.874Z,11.43
2023-04-12T03:21:26.031Z,10.44
2023-04-12T03:23:53.864Z,10.51
2023-04-12T03:26:21.698Z,10.89
2023-04-12T03:28:56.904Z,10.83
2023-04-12T03:31:38.755Z,11.89
2023-04-12T03:34:06.822Z,10.94
2023-04-12T03:36:34.880Z,11.25
2023-04-12T03:39:02.786Z,10.67
2023-04-12T03:41:30.673Z,11.05
2023-04-12T03:43:59.965Z,9.40
2023-04-12T03:46:27.885Z,12.20
2023-04-12T03:48:55.783Z,11.93
2023-04-12T03:51:26.855Z,11.35
2023-04-12T03:53:55.565Z,11.64
2023-04-12T03:56:23.669Z,10.61
2023-04-12T03:58:51.607Z,10.93
2023-04-12T04:01:21.654Z,11.49
2023-04-12T04:03:49.684Z,12.15
2023-04-12T04:06:18.755Z,11.55
2023-04-12T04:08:46.553Z,9.77
2023-04-12T04:11:14.466Z,11.29
2023-04-12T04:13:42.392Z,11.63
2023-04-12T04:16:10.946Z,9.67
2023-04-12T04:18:41.676Z,10.70
2023-04-12T04:21:09.988Z,10.76
2023-04-12T04:23:39.656Z,10.55
2023-04-12T04:26:10.564Z,12.20
2023-04-12T04:28:39.292Z,10.18
2023-04-12T04:31:07.194Z,12.34
2023-04-12T04:33:36.192Z,11.73
2023-04-12T04:36:06.518Z,11.70
2023-04-12T04:38:34.584Z,11.73
2023-04-12T04:41:03.494Z,10.90
2023-04-12T04:43:31.495Z,11.14
2023-04-12T04:45:59.337Z,12.14
2023-04-12T04:48:27.347Z,10.63
2023-04-12T04:50:55.216Z,12.18
2023-04-12T04:53:24.510Z,12.17
2023-04-12T04:55:58.820Z,12.43
2023-04-12T05:05:11.446Z,9.08
2023-04-12T05:08:16.506Z,12.46
2023-04-12T05:11:10.378Z,11.24
2023-04-12T05:14:23.220Z,11.77
2023-04-12T05:17:07.857Z,10.21
2023-04-12T05:23:42.954Z,9.66
2023-04-12T05:27:15.029Z,12.12
2023-04-12T05:37:05.167Z,10.08
2023-04-12T07:16:46.880Z,8.86
2023-04-12T07:52:20.964Z,12.20
2023-04-12T07:54:49.059Z,10.39
2023-04-12T07:57:22.046Z,10.34
2023-04-12T07:59:49.969Z,11.73
2023-04-12T08:02:24.680Z,11.59
2023-04-12T08:04:52.606Z,12.11
2023-04-12T08:07:28.732Z,11.57
2023-04-12T08:09:56.695Z,11.74
2023-04-12T08:12:24.635Z,10.65
2023-04-12T08:14:52.457Z,12.35
2023-04-12T08:17:20.660Z,12.53
2023-04-12T08:19:48.642Z,11.09
2023-04-12T08:22:19.779Z,11.94
2023-04-12T08:24:49.958Z,11.11
2023-04-12T08:27:23.207Z,11.62
2023-04-12T08:29:51.124Z,12.63
2023-04-12T08:32:18.991Z,12.72
2023-04-12T08:34:47.094Z,10.84
2023-04-12T08:37:15.238Z,12.64
2023-04-12T08:39:43.442Z,12.99
2023-04-12T08:42:12.721Z,13.04
2023-04-12T08:44:41.008Z,13.11
2023-04-12T08:47:10.649Z,12.50
2023-04-12T08:49:38.557Z,13.22
2023-04-12T08:52:07.067Z,13.11
2023-04-12T08:54:35.344Z,13.39
2023-04-12T08:57:06.465Z,12.45
2023-04-12T08:59:38.954Z,13.34
2023-04-12T09:02:09.888Z,12.23
2023-04-12T09:04:48.860Z,11.39
2023-04-12T09:07:17.262Z,13.11
2023-04-12T09:09:45.527Z,12.24
2023-04-12T09:12:15.378Z,13.20
2023-04-12T09:14:44.956Z,12.75
2023-04-12T09:17:26.005Z,13.03
2023-04-12T09:19:56.166Z,13.77
2023-04-12T09:22:34.710Z,13.39
2023-04-12T09:25:02.613Z,13.90
2023-04-12T09:27:31.399Z,13.60
2023-04-12T09:30:19.545Z,14.05
2023-04-12T09:32:49.572Z,14.13
2023-04-12T09:35:17.905Z,14.15
2023-04-12T09:37:45.834Z,13.94
2023-04-12T09:40:14.111Z,13.92
2023-04-12T09:42:52.666Z,13.99
2023-04-12T09:45:23.976Z,14.30
2023-04-12T09:47:52.251Z,14.41
2023-04-12T09:50:24.052Z,14.43
2023-04-12T09:52:51.890Z,13.45
2023-04-12T09:55:19.688Z,13.82
2023-04-12T09:57:47.769Z,13.76
2023-04-12T10:00:18.370Z,14.13
2023-04-12T10:02:51.220Z,14.11
2023-04-12T10:05:21.031Z,12.90
2023-04-12T10:07:51.019Z,13.97
2023-04-12T10:10:19.846Z,14.08
2023-04-12T10:12:48.647Z,13.55
2023-04-12T10:15:17.831Z,15.21
2023-04-12T10:17:48.899Z,14.83
2023-04-12T10:20:17.866Z,15.30
2023-04-12T10:22:46.915Z,14.95
2023-04-12T10:25:15.747Z,14.51
2023-04-12T10:27:44.053Z,14.75
2023-04-12T10:30:32.142Z,15.48
2023-04-12T10:33:14.925Z,15.22
2023-04-12T10:36:12.267Z,15.19
2023-04-12T10:38:46.893Z,14.89
2023-04-12T10:41:18.089Z,15.62
2023-04-12T10:43:46.413Z,14.60
2023-04-12T10:46:53.417Z,15.66
2023-04-12T10:49:22.910Z,15.72
2023-04-12T10:52:13.748Z,15.75
2023-04-12T10:54:41.729Z,15.42
2023-04-12T10:57:11.735Z,14.35
2023-04-12T10:59:57.112Z,15.75
2023-04-12T11:02:25.544Z,15.65
2023-04-12T11:05:09.366Z,15.96
2023-04-12T11:07:40.659Z,15.24
2023-04-12T11:10:15.621Z,15.98
2023-04-12T11:12:44.968Z,15.68
2023-04-12T11:15:15.253Z,15.45
2023-04-12T11:17:43.751Z,15.83
2023-04-12T11:20:35.061Z,12.24
2023-04-12T11:23:05.960Z,14.54
2023-04-12T11:28:25.127Z,14.74
2023-04-12T11:38:47.984Z,14.67
2023-04-12T11:41:33.630Z,16.59
2023-04-12T11:48:09.298Z,18.00
2023-04-12T11:50:40.444Z,17.51
2023-04-12T11:53:12.799Z,18.09
2023-04-12T11:55:48.318Z,18.42
2023-04-12T11:58:16.256Z,18.82
2023-04-12T12:01:05.913Z,18.76
2023-04-12T12:03:33.826Z,15.56
2023-04-12T12:06:03.297Z,16.39
2023-04-12T12:08:31.898Z,16.26
2023-04-12T12:11:07.881Z,18.11
2023-04-12T12:13:47.013Z,18.12
2023-04-12T12:16:15.218Z,18.12
2023-04-12T12:18:43.771Z,17.19
2023-04-12T12:21:14.778Z,17.57
2023-04-12T12:23:45.203Z,18.36
2023-04-12T12:26:27.194Z,17.39
2023-04-12T12:28:58.097Z,17.53
2023-04-12T12:31:26.696Z,18.83
2023-04-12T12:33:57.974Z,18.77
2023-04-12T12:36:33.525Z,18.64
2023-04-12T12:39:07.063Z,17.23
2023-04-12T12:41:36.713Z,17.34
2023-04-12T12:44:04.833Z,19.08
2023-04-12T12:46:48.747Z,19.55
2023-04-12T12:49:21.104Z,19.16
2023-04-12T12:51:49.032Z,16.47
2023-04-12T12:54:28.404Z,20.08
2023-04-12T12:57:07.292Z,19.43
2023-04-12T12:59:35.117Z,19.76
2023-04-12T13:02:03.560Z,19.17
2023-04-12T13:04:32.022Z,19.71
2023-04-12T13:07:00.096Z,19.18
2023-04-12T13:09:27.861Z,20.36
2023-04-12T13:14:49.422Z,20.43
2023-04-12T13:17:18.691Z,18.49
2023-04-12T13:19:46.994Z,19.93
2023-04-12T13:22:15.247Z,20.62
2023-04-12T13:24:46.077Z,20.44
2023-04-12T13:27:15.257Z,20.72
2023-04-12T13:29:43.109Z,20.46
2023-04-12T13:32:13.974Z,20.19
2023-04-12T13:34:41.898Z,20.01
2023-04-12T13:37:09.761Z,18.62
2023-04-12T13:39:44.242Z,18.01
2023-04-12T13:42:12.033Z,18.83
2023-04-12T13:44:39.785Z,19.09
2023-04-12T13:47:07.715Z,20.17
2023-04-12T13:49:41.996Z,20.15
2023-04-12T13:52:10.024Z,20.21
2023-04-12T13:54:37.967Z,20.39
2023-04-12T13:57:07.436Z,20.32
2023-04-12T13:59:53.605Z,20.08
2023-04-12T14:02:22.674Z,20.50
2023-04-12T14:04:53.495Z,19.98
2023-04-12T14:07:22.897Z,20.21
2023-04-12T14:09:51.055Z,19.92
2023-04-12T14:12:23.120Z,17.89
2023-04-12T14:17:32.774Z,18.74
2023-04-12T14:20:02.461Z,19.44
2023-04-12T14:22:32.686Z,17.43
2023-04-12T14:25:00.813Z,16.16
2023-04-12T14:27:28.800Z,19.23
2023-04-12T14:29:58.817Z,17.33
2023-04-12T14:32:27.243Z,19.03
2023-04-12T14:34:56.083Z,18.63
2023-04-12T14:37:25.336Z,18.68
2023-04-12T14:39:54.317Z,16.82
2023-04-12T14:42:23.139Z,17.74
2023-04-12T14:44:51.023Z,17.74
2023-04-12T14:55:19.790Z,16.50
2023-04-12T14:57:47.949Z,13.36
2023-04-12T15:00:16.779Z,15.11
2023-04-12T15:02:46.211Z,14.02
2023-04-12T15:05:16.288Z,15.80
2023-04-12T15:07:45.136Z,16.11
2023-04-12T15:10:14.409Z,16.15
2023-04-12T15:12:44.026Z,16.32
2023-04-12T15:15:12.620Z,16.59
2023-04-12T15:20:13.736Z,16.43
2023-04-12T15:22:42.318Z,15.55
2023-04-12T15:25:11.696Z,16.41
2023-04-12T15:27:39.509Z,16.56
2023-04-12T15:30:14.280Z,16.07
2023-04-12T15:32:42.895Z,15.23
2023-04-12T15:37:42.419Z,16.11
2023-04-12T15:40:13.611Z,15.20
2023-04-12T15:42:43.457Z,16.13
2023-04-12T15:45:19.329Z,14.79
2023-04-12T15:47:47.488Z,15.46
2023-04-12T15:50:18.007Z,14.86
2023-04-12T15:52:46.180Z,14.25
2023-04-12T15:55:16.983Z,15.77
2023-04-12T15:57:45.552Z,15.90
2023-04-12T16:00:23.868Z,14.47
2023-04-12T16:02:54.540Z,16.57
2023-04-12T16:05:23.022Z,16.68
2023-04-12T16:07:51.386Z,16.11
2023-04-12T16:10:21.211Z,16.66
2023-04-12T16:12:51.922Z,16.36
2023-04-12T16:15:20.153Z,16.23
2023-04-12T16:17:48.256Z,14.69
2023-04-12T16:20:19.015Z,14.87
2023-04-12T16:22:48.302Z,14.11
2023-04-12T16:25:16.729Z,14.90
2023-04-12T16:27:45.018Z,15.85
2023-04-12T16:30:15.575Z,16.00
2023-04-12T16:32:44.018Z,14.38
2023-04-12T16:35:13.136Z,15.65
2023-04-12T16:37:44.143Z,13.87
2023-04-12T16:40:12.987Z,15.73
2023-04-12T16:42:41.910Z,13.71
2023-04-12T16:45:10.254Z,14.57
2023-04-12T16:47:38.350Z,15.47
2023-04-12T16:50:10.439Z,15.35
2023-04-12T16:52:41.572Z,13.53
2023-04-12T16:55:14.648Z,13.93
2023-04-12T16:57:59.431Z,15.16
2023-04-12T17:02:57.348Z,12.40
2023-04-12T17:05:38.319Z,14.43
2023-04-12T17:08:09.763Z,15.53
2023-04-12T17:10:40.274Z,14.63
2023-04-12T17:13:08.450Z,13.77
2023-04-12T17:15:58.478Z,15.35
2023-04-12T17:18:28.659Z,14.10
2023-04-12T17:21:05.750Z,14.34
2023-04-12T17:23:34.305Z,13.50
2023-04-12T17:26:04.253Z,12.01
2023-04-12T17:28:34.679Z,13.66
2023-04-12T17:31:02.567Z,14.46
2023-04-12T17:33:33.461Z,13.93
2023-04-12T17:36:01.883Z,14.10
2023-04-12T17:38:30.064Z,14.89
2023-04-12T17:41:24.850Z,14.43
2023-04-12T17:43:54.202Z,15.04
2023-04-12T17:46:22.083Z,14.69
2023-04-12T17:48:54.154Z,12.05
2023-04-12T17:51:34.291Z,13.84
2023-04-12T17:54:03.851Z,13.06
2023-04-12T17:56:37.817Z,12.76
2023-04-12T17:59:07.366Z,13.89
2023-04-12T18:01:36.982Z,13.65
2023-04-12T18:04:07.104Z,12.66
2023-04-12T18:06:40.108Z,10.79
2023-04-12T18:09:09.109Z,12.41
2023-04-12T18:11:38.787Z,12.71
2023-04-12T18:14:08.673Z,13.46
2023-04-12T18:16:39.030Z,13.25
2023-04-12T18:19:08.203Z,12.81
2023-04-12T18:21:36.772Z,13.24
2023-04-12T18:24:06.093Z,12.68
2023-04-12T18:26:34.767Z,11.96
2023-04-12T18:29:02.822Z,10.66
2023-04-12T18:31:32.503Z,12.61
2023-04-12T18:34:01.134Z,13.68
2023-04-12T18:36:29.156Z,10.14
2023-04-12T18:38:57.562Z,12.94
2023-04-12T18:41:26.362Z,9.97
2023-04-12T18:44:35.748Z,13.49
2023-04-12T18:47:10.350Z,11.44
2023-04-12T18:49:39.036Z,9.87
2023-04-12T18:52:07.393Z,13.38
2023-04-12T18:54:52.876Z,13.32
2023-04-12T18:57:22.078Z,12.50
2023-04-12T18:59:51.495Z,11.04
2023-04-12T19:06:22.492Z,10.73
2023-04-12T19:08:54.503Z,10.83
2023-04-12T19:12:16.332Z,9.67
2023-04-12T19:14:59.480Z,10.16
2023-04-12T19:17:54.107Z,10.47
2023-04-12T19:20:25.497Z,13.09
2023-04-12T19:27:24.000Z,12.96
2023-04-12T19:29:52.491Z,10.90
2023-04-12T19:32:32.044Z,12.85
2023-04-12T19:34:59.869Z,12.90
